createdAt,value
2023-04-19T00:00:27.502Z,95.52
2023-04-19T00:01:59.732Z,95.70
2023-04-19T00:03:32.265Z,95.65
2023-04-19T00:05:05.467Z,96.01
2023-04-19T00:06:38.522Z,96.10
2023-04-19T00:08:10.701Z,96.24
2023-04-19T00:09:42.805Z,96.19
2023-04-19T00:11:14.874Z,96.39
2023-04-19T00:12:46.989Z,96.60
2023-04-19T00:14:19.060Z,96.46
2023-04-19T00:15:51.413Z,96.59
2023-04-19T00:17:23.559Z,96.54
2023-04-19T00:18:55.824Z,96.66
2023-04-19T00:20:28.048Z,96.65
2023-04-19T00:22:00.102Z,96.62
2023-04-19T00:23:32.181Z,96.64
2023-04-19T00:25:04.425Z,96.33
2023-04-19T00:26:36.691Z,96.24
2023-04-19T00:28:08.766Z,96.15
2023-04-19T00:29:40.969Z,96.01
2023-04-19T00:31:13.170Z,95.87
2023-04-19T00:32:45.379Z,95.67
2023-04-19T00:34:17.562Z,95.43
2023-04-19T00:35:49.725Z,95.23
2023-04-19T00:37:21.985Z,95.03
2023-04-19T00:38:54.214Z,95.22
2023-04-19T00:40:26.484Z,95.10
2023-04-19T00:41:58.538Z,95.13
2023-04-19T00:43:30.673Z,95.40
2023-04-19T00:45:02.820Z,95.44
2023-04-19T00:46:37.121Z,95.77
2023-04-19T00:48:09.413Z,95.96
2023-04-19T00:49:41.712Z,95.92
2023-04-19T00:51:14.153Z,96.03
2023-04-19T00:52:47.040Z,96.19
2023-04-19T00:54:20.071Z,96.20
2023-04-19T00:55:52.306Z,96.36
2023-04-19T00:57:25.615Z,96.33
2023-04-19T00:58:57.722Z,96.33
2023-04-19T01:00:29.837Z,96.29
2023-04-19T01:02:02.522Z,96.44
2023-04-19T01:03:35.429Z,96.57
2023-04-19T01:05:08.345Z,96.52
2023-04-19T01:06:41.053Z,96.41
2023-04-19T01:08:13.127Z,96.48
2023-04-19T01:09:45.597Z,96.67
2023-04-19T01:11:17.692Z,96.74
2023-04-19T01:12:49.660Z,96.86
2023-04-19T01:14:21.710Z,96.79
2023-04-19T01:15:54.149Z,97.00
2023-04-19T01:17:27.843Z,96.86
2023-04-19T01:18:59.949Z,96.59
2023-04-19T01:20:31.981Z,96.92
2023-04-19T01:22:04.601Z,96.81
2023-04-19T01:23:37.176Z,96.47
2023-04-19T01:25:09.989Z,96.54
2023-04-19T01:26:42.031Z,96.47
2023-04-19T01:28:14.305Z,96.68
2023-04-19T01:29:46.576Z,96.76
2023-04-19T01:31:18.683Z,96.68
2023-04-19T01:32:50.981Z,96.55
2023-04-19T01:34:26.509Z,96.40
2023-04-19T01:35:58.626Z,96.48
2023-04-19T01:37:30.835Z,96.09
2023-04-19T01:39:02.969Z,96.30
2023-04-19T01:40:35.080Z,96.28
2023-04-19T01:42:07.218Z,96.04
2023-04-19T01:43:39.251Z,95.84
2023-04-19T01:45:11.859Z,95.68
2023-04-19T01:46:43.964Z,95.71
2023-04-19T01:48:16.055Z,95.58
2023-04-19T01:49:48.169Z,95.59
2023-04-19T01:51:22.197Z,95.66
2023-04-19T01:52:54.306Z,95.48
2023-04-19T01:54:27.384Z,95.52
2023-04-19T01:55:59.667Z,95.52
2023-04-19T01:57:31.710Z,95.50
2023-04-19T01:59:04.487Z,95.56
2023-04-19T02:00:36.604Z,95.30
2023-04-19T02:02:09.681Z,95.26
2023-04-19T02:03:42.235Z,95.01
2023-04-19T02:37:37.862Z,96.74
2023-04-19T02:39:10.071Z,96.27
2023-04-19T02:40:42.123Z,96.46
2023-04-19T02:42:14.258Z,96.11
2023-04-19T02:43:46.368Z,96.13
2023-04-19T02:45:18.592Z,96.31
2023-04-19T02:46:51.788Z,96.31
2023-04-19T02:48:23.772Z,96.48
2023-04-19T02:49:55.967Z,96.50
2023-04-19T02:51:28.095Z,96.65
2023-04-19T02:53:00.102Z,96.78
2023-04-19T02:54:33.574Z,96.79
2023-04-19T02:56:05.620Z,96.71
2023-04-19T02:57:37.727Z,96.72
2023-04-19T02:59:09.876Z,96.73
2023-04-19T03:00:41.985Z,96.93
2023-04-19T03:02:14.166Z,96.75
2023-04-19T03:03:46.391Z,96.70
2023-04-19T03:05:18.636Z,96.90
2023-04-19T03:06:51.227Z,97.01
2023-04-19T03:08:23.331Z,97.13
2023-04-19T03:09:55.446Z,97.08
2023-04-19T03:11:27.569Z,97.09
2023-04-19T03:12:59.743Z,97.11
2023-04-19T03:14:34.200Z,96.95
2023-04-19T03:16:07.108Z,97.23
2023-04-19T03:17:39.267Z,97.01
2023-04-19T03:19:11.532Z,97.41
2023-04-19T03:20:43.917Z,97.44
2023-04-19T03:22:16.148Z,97.34
2023-04-19T03:23:48.319Z,97.18
2023-04-19T03:25:21.035Z,97.27
2023-04-19T03:26:53.198Z,97.39
2023-04-19T03:28:25.389Z,97.45
2023-04-19T03:29:57.706Z,97.56
2023-04-19T03:31:29.924Z,97.45
2023-04-19T03:33:02.297Z,97.61
2023-04-19T03:34:34.440Z,97.62
2023-04-19T03:36:07.471Z,97.77
2023-04-19T03:37:39.625Z,97.69
2023-04-19T03:39:11.826Z,97.90
2023-04-19T03:40:43.974Z,97.78
2023-04-19T03:42:16.202Z,97.72
2023-04-19T03:43:48.412Z,98.00
2023-04-19T03:45:20.809Z,97.93
2023-04-19T03:46:52.651Z,97.84
2023-04-19T03:48:24.762Z,98.00
2023-04-19T03:49:57.948Z,97.85
2023-04-19T03:51:30.101Z,98.01
2023-04-19T03:53:05.088Z,98.12
2023-04-19T03:54:37.283Z,98.01
2023-04-19T03:56:09.547Z,97.95
2023-04-19T03:57:41.635Z,98.09
2023-04-19T03:59:13.826Z,98.05
2023-04-19T04:00:46.107Z,98.17
2023-04-19T04:02:18.300Z,98.10
2023-04-19T04:03:50.817Z,98.02
2023-04-19T04:05:23.425Z,98.39
2023-04-19T04:06:56.307Z,97.97
2023-04-19T04:08:28.442Z,98.39
2023-04-19T04:10:00.688Z,98.53
2023-04-19T04:11:32.788Z,98.14
2023-04-19T04:13:04.949Z,98.20
2023-04-19T04:14:37.065Z,98.16
2023-04-19T04:16:09.337Z,98.25
2023-04-19T04:17:41.541Z,98.13
2023-04-19T04:19:13.925Z,98.05
2023-04-19T04:20:46.088Z,98.27
2023-04-19T04:22:18.208Z,98.37
2023-04-19T04:23:50.296Z,98.38
2023-04-19T04:25:23.229Z,98.46
2023-04-19T04:26:55.737Z,98.10
2023-04-19T04:28:28.765Z,98.35
2023-04-19T04:30:02.084Z,98.51
2023-04-19T04:31:36.361Z,98.40
2023-04-19T04:33:09.074Z,98.58
2023-04-19T04:34:43.158Z,98.62
2023-04-19T04:36:15.706Z,98.64
2023-04-19T04:37:49.182Z,98.71
2023-04-19T04:39:21.389Z,98.40
2023-04-19T04:40:54.788Z,98.40
2023-04-19T04:42:26.841Z,98.23
2023-04-19T04:44:23.418Z,98.43
2023-04-19T04:45:55.968Z,98.42
2023-04-19T04:47:32.775Z,98.37
2023-04-19T04:49:04.894Z,98.61
2023-04-19T04:50:37.286Z,98.60
2023-04-19T04:52:09.987Z,98.70
2023-04-19T04:53:42.078Z,98.56
2023-04-19T04:55:14.201Z,98.72
2023-04-19T04:56:46.370Z,98.64
2023-04-19T04:58:20.338Z,98.74
2023-04-19T04:59:52.700Z,98.86
2023-04-19T05:01:24.885Z,98.70
2023-04-19T05:02:57.135Z,98.74
2023-04-19T05:04:29.419Z,98.71
2023-04-19T05:06:01.589Z,98.78
2023-04-19T05:07:33.748Z,98.73
2023-04-19T05:09:05.800Z,98.37
2023-04-19T05:10:37.926Z,98.31
2023-04-19T05:12:10.032Z,98.08
2023-04-19T05:13:42.219Z,98.19
2023-04-19T05:15:14.347Z,97.97
2023-04-19T05:16:46.748Z,98.03
2023-04-19T05:18:19.011Z,97.92
2023-04-19T05:19:51.525Z,97.98
2023-04-19T05:21:23.737Z,98.22
2023-04-19T05:22:59.714Z,98.13
2023-04-19T05:24:31.890Z,98.24
2023-04-19T05:26:04.031Z,98.17
2023-04-19T05:27:36.133Z,98.39
2023-04-19T05:29:08.260Z,98.42
2023-04-19T05:30:40.549Z,98.44
2023-04-19T05:32:12.889Z,98.47
2023-04-19T05:33:44.924Z,98.48
2023-04-19T05:35:16.988Z,98.63
2023-04-19T05:36:49.240Z,98.64
2023-04-19T05:38:21.528Z,98.51
2023-04-19T05:39:53.700Z,98.56
2023-04-19T05:41:26.422Z,98.65
2023-04-19T05:42:58.488Z,98.49
2023-04-19T05:44:30.608Z,98.69
2023-04-19T05:46:02.853Z,98.72
2023-04-19T05:47:35.078Z,98.58
2023-04-19T05:49:07.263Z,98.81
2023-04-19T05:50:39.938Z,98.73
2023-04-19T05:52:12.351Z,98.33
2023-04-19T05:53:44.519Z,98.63
2023-04-19T05:56:48.618Z,98.67
2023-04-19T05:58:20.937Z,98.70
2023-04-19T05:59:53.154Z,98.46
2023-04-19T06:01:25.285Z,98.41
2023-04-19T06:02:57.575Z,98.64
2023-04-19T06:04:29.964Z,98.28
2023-04-19T06:06:02.506Z,98.48
2023-04-19T06:07:39.977Z,98.34
2023-04-19T06:09:15.940Z,98.27
2023-04-19T06:10:55.884Z,98.28
2023-04-19T06:12:32.166Z,98.22
2023-04-19T06:14:04.377Z,98.35
2023-04-19T06:15:36.674Z,98.28
2023-04-19T06:17:11.843Z,98.27
2023-04-19T06:18:43.922Z,98.17
2023-04-19T06:20:16.121Z,98.23
2023-04-19T06:21:48.284Z,98.34
2023-04-19T06:23:22.541Z,98.24
2023-04-19T06:24:54.624Z,98.07
2023-04-19T06:26:26.885Z,97.80
2023-04-19T06:27:59.088Z,97.28
2023-04-19T06:29:31.320Z,97.18
2023-04-19T06:31:03.522Z,96.94
2023-04-19T06:32:38.529Z,96.48
2023-04-19T06:34:11.518Z,96.48
2023-04-19T06:35:43.618Z,96.59
2023-04-19T06:37:15.752Z,96.23
2023-04-19T06:38:47.959Z,95.94
2023-04-19T06:40:20.145Z,95.82
2023-04-19T06:41:52.226Z,95.72
2023-04-19T06:43:25.056Z,95.99
2023-04-19T06:45:00.299Z,95.72
2023-04-19T06:46:32.596Z,95.63
2023-04-19T06:48:05.207Z,95.47
2023-04-19T06:49:37.354Z,95.09
2023-04-19T06:51:09.849Z,94.80
2023-04-19T06:52:42.678Z,95.06
2023-04-19T06:54:14.760Z,94.94
2023-04-19T06:55:47.169Z,94.83
2023-04-19T06:57:19.339Z,94.83
2023-04-19T06:58:51.527Z,94.68
2023-04-19T07:00:23.842Z,94.44
2023-04-19T07:01:57.965Z,94.33
2023-04-19T07:03:30.276Z,94.44
2023-04-19T07:05:02.672Z,94.49
2023-04-19T07:06:38.576Z,94.45
2023-04-19T07:08:10.705Z,94.57
2023-04-19T07:09:42.956Z,93.94
2023-04-19T07:11:15.067Z,93.42
2023-04-19T07:12:47.237Z,92.22
2023-04-19T07:14:22.256Z,92.76
2023-04-19T07:15:54.420Z,92.54
2023-04-19T07:17:26.683Z,92.67
2023-04-19T07:18:59.079Z,92.97
2023-04-19T07:20:32.064Z,92.59
2023-04-19T07:22:04.174Z,92.52
2023-04-19T07:23:36.390Z,92.54
2023-04-19T07:25:09.091Z,92.33
2023-04-19T07:26:41.128Z,92.49
2023-04-19T07:28:13.296Z,92.32
2023-04-19T07:29:45.449Z,92.30
2023-04-19T07:31:20.485Z,92.40
2023-04-19T07:32:54.063Z,92.13
2023-04-19T07:34:26.172Z,92.14
2023-04-19T07:35:58.355Z,92.08
2023-04-19T07:37:30.881Z,92.00
2023-04-19T07:39:03.532Z,91.96
2023-04-19T07:40:36.147Z,92.19
2023-04-19T07:42:08.302Z,92.05
2023-04-19T07:43:41.103Z,91.82
2023-04-19T07:45:13.391Z,92.23
2023-04-19T07:46:45.834Z,92.37
2023-04-19T07:48:17.974Z,92.48
2023-04-19T07:49:53.828Z,92.78
2023-04-19T07:51:26.600Z,92.88
2023-04-19T07:52:58.776Z,92.48
2023-04-19T07:54:31.767Z,92.28
2023-04-19T07:56:04.195Z,92.05
2023-04-19T07:57:36.433Z,92.21
2023-04-19T07:59:09.569Z,92.06
2023-04-19T08:00:41.894Z,91.98
2023-04-19T08:02:14.433Z,91.45
2023-04-19T08:03:47.567Z,91.85
2023-04-19T08:05:20.479Z,91.46
2023-04-19T08:06:53.459Z,91.13
2023-04-19T08:08:26.284Z,90.94
2023-04-19T08:09:58.507Z,90.49
2023-04-19T08:11:31.933Z,90.50
2023-04-19T08:13:06.296Z,90.63
2023-04-19T08:14:56.459Z,90.71
2023-04-19T08:17:14.152Z,90.36
2023-04-19T08:18:25.357Z,90.57
2023-04-19T08:19:57.447Z,90.67
2023-04-19T08:21:38.439Z,90.76
2023-04-19T08:23:21.632Z,90.62
2023-04-19T08:24:58.016Z,90.66
2023-04-19T08:26:30.186Z,90.66
2023-04-19T08:28:02.437Z,90.57
2023-04-19T08:29:34.490Z,90.03
2023-04-19T08:31:08.138Z,90.36
2023-04-19T08:32:40.313Z,90.65
2023-04-19T08:34:12.524Z,90.98
2023-04-19T08:35:45.965Z,90.95
2023-04-19T08:37:17.873Z,91.03
2023-04-19T08:39:04.242Z,91.09
2023-04-19T08:40:47.117Z,91.20
2023-04-19T08:42:33.089Z,91.09
2023-04-19T08:44:08.702Z,91.01
2023-04-19T08:45:40.849Z,91.12
2023-04-19T08:47:17.699Z,91.10
2023-04-19T08:49:00.145Z,91.28
2023-04-19T08:50:36.172Z,91.50
2023-04-19T08:52:14.350Z,91.06
2023-04-19T08:55:21.230Z,90.59
2023-04-19T08:56:54.876Z,90.79
2023-04-19T08:58:37.032Z,90.93
2023-04-19T09:00:19.529Z,90.71
2023-04-19T09:01:51.631Z,90.94
2023-04-19T09:03:24.300Z,91.34
2023-04-19T09:04:56.796Z,91.22
2023-04-19T09:06:29.300Z,91.17
2023-04-19T09:08:24.182Z,90.78
2023-04-19T09:10:08.279Z,90.89
2023-04-19T09:11:40.787Z,91.07
2023-04-19T09:13:14.177Z,91.59
2023-04-19T09:15:00.464Z,90.79
2023-04-19T09:16:33.674Z,90.78
2023-04-19T09:18:08.307Z,91.55
2023-04-19T09:19:50.467Z,91.60
2023-04-19T09:21:32.393Z,92.14
2023-04-19T09:23:08.212Z,91.83
2023-04-19T09:26:23.477Z,89.88
2023-04-19T09:27:56.822Z,89.27
2023-04-19T09:29:28.916Z,88.79
2023-04-19T09:31:30.332Z,88.67
2023-04-19T09:33:06.412Z,88.30
2023-04-19T09:34:52.206Z,87.34
2023-04-19T09:36:32.387Z,87.56
2023-04-19T09:38:07.342Z,86.96
2023-04-19T09:39:39.461Z,86.18
2023-04-19T09:41:11.798Z,85.89
2023-04-19T09:44:58.777Z,85.48
2023-04-19T09:46:33.696Z,85.04
2023-04-19T09:48:10.390Z,85.48
2023-04-19T09:49:48.847Z,86.00
2023-04-19T09:51:22.318Z,85.89
2023-04-19T09:52:54.602Z,85.34
2023-04-19T09:54:32.869Z,85.72
2023-04-19T09:56:06.557Z,86.82
2023-04-19T09:57:38.670Z,87.52
2023-04-19T09:59:20.394Z,86.97
2023-04-19T10:01:02.878Z,84.92
2023-04-19T10:02:44.034Z,83.87
2023-04-19T10:04:33.326Z,84.15
2023-04-19T10:07:57.730Z,82.82
2023-04-19T10:09:34.095Z,82.91
2023-04-19T10:11:08.114Z,83.04
2023-04-19T10:12:59.157Z,83.42
2023-04-19T10:14:36.591Z,82.62
2023-04-19T10:16:18.792Z,82.62
2023-04-19T10:17:52.091Z,82.73
2023-04-19T10:19:24.849Z,82.94
2023-04-19T10:21:03.843Z,82.41
2023-04-19T10:22:38.071Z,82.27
2023-04-19T10:24:10.898Z,82.11
2023-04-19T10:25:48.036Z,82.44
2023-04-19T10:27:25.063Z,82.68
2023-04-19T10:28:57.821Z,82.27
2023-04-19T10:30:29.976Z,82.25
2023-04-19T10:32:06.007Z,83.09
2023-04-19T10:33:38.865Z,83.17
2023-04-19T10:35:17.678Z,82.85
2023-04-19T10:36:49.790Z,83.10
2023-04-19T10:38:22.124Z,82.61
2023-04-19T10:39:54.328Z,81.19
2023-04-19T10:41:59.754Z,81.21
2023-04-19T10:43:35.792Z,81.47
2023-04-19T10:45:32.908Z,79.69
2023-04-19T10:47:06.460Z,79.51
2023-04-19T10:48:41.185Z,78.86
2023-04-19T10:50:13.387Z,78.59
2023-04-19T10:51:55.612Z,77.82
2023-04-19T10:53:50.057Z,76.73
2023-04-19T10:55:22.331Z,78.03
2023-04-19T10:57:03.142Z,76.96
2023-04-19T10:59:08.610Z,74.22
2023-04-19T11:00:41.318Z,75.99
2023-04-19T11:02:22.636Z,74.20
2023-04-19T11:03:55.415Z,74.34
2023-04-19T11:05:28.022Z,73.34
2023-04-19T11:07:09.749Z,75.45
2023-04-19T11:08:45.004Z,74.86
2023-04-19T11:10:29.399Z,75.27
2023-04-19T11:12:08.841Z,75.13
2023-04-19T11:13:44.768Z,74.42
2023-04-19T11:15:23.383Z,75.42
2023-04-19T11:16:55.684Z,76.77
2023-04-19T11:18:30.982Z,74.68
2023-04-19T11:20:10.283Z,74.44
2023-04-19T11:21:42.558Z,72.61
2023-04-19T11:23:18.531Z,71.73
2023-04-19T11:24:50.672Z,68.99
2023-04-19T11:26:24.244Z,70.52
2023-04-19T11:27:56.506Z,71.13
2023-04-19T11:29:28.645Z,68.95
2023-04-19T11:31:00.991Z,68.48
2023-04-19T11:32:33.760Z,68.60
2023-04-19T11:34:06.224Z,66.73
2023-04-19T11:35:38.528Z,68.80
2023-04-19T11:37:12.008Z,71.23
2023-04-19T11:38:48.658Z,71.11
2023-04-19T11:40:22.239Z,70.92
2023-04-19T11:41:54.354Z,71.64
2023-04-19T11:43:36.056Z,69.54
2023-04-19T11:45:18.675Z,70.41
2023-04-19T11:47:08.184Z,69.02
2023-04-19T11:48:51.645Z,65.97
2023-04-19T11:50:35.690Z,66.71
2023-04-19T11:52:08.007Z,68.45
2023-04-19T11:53:40.666Z,69.26
2023-04-19T11:55:19.749Z,68.45
2023-04-19T11:57:09.938Z,68.57
2023-04-19T11:58:48.567Z,66.89
2023-04-19T12:00:28.894Z,68.71
2023-04-19T12:02:12.033Z,68.78
2023-04-19T12:03:54.604Z,67.32
2023-04-19T12:05:27.434Z,71.54
2023-04-19T12:07:01.376Z,69.05
2023-04-19T12:08:38.433Z,69.54
2023-04-19T12:10:12.729Z,68.83
2023-04-19T12:11:46.780Z,69.56
2023-04-19T12:14:54.861Z,68.50
2023-04-19T12:16:29.849Z,66.60
2023-04-19T12:18:03.424Z,67.91
2023-04-19T12:19:37.565Z,68.27
2023-04-19T12:21:09.717Z,68.10
2023-04-19T12:22:44.305Z,67.56
2023-04-19T12:24:17.163Z,69.82
2023-04-19T12:25:50.373Z,70.32
2023-04-19T12:27:22.609Z,70.42
2023-04-19T12:28:58.839Z,72.70
2023-04-19T12:30:31.099Z,72.04
2023-04-19T12:32:03.903Z,70.23
2023-04-19T12:33:36.014Z,70.32
2023-04-19T12:35:08.527Z,69.67
2023-04-19T12:36:40.696Z,72.45
2023-04-19T12:38:12.977Z,72.00
2023-04-19T12:39:45.053Z,70.37
2023-04-19T12:41:17.216Z,68.87
2023-04-19T12:42:49.956Z,69.31
2023-04-19T12:44:22.120Z,69.58
2023-04-19T12:45:54.616Z,67.72
2023-04-19T12:47:26.762Z,68.62
2023-04-19T12:48:58.958Z,70.43
2023-04-19T12:50:31.155Z,68.07
2023-04-19T12:52:03.256Z,64.74
2023-04-19T12:53:35.343Z,64.99
2023-04-19T12:55:08.031Z,63.21
2023-04-19T12:56:40.217Z,62.55
2023-04-19T12:58:12.503Z,63.05
2023-04-19T12:59:44.897Z,64.07
2023-04-19T13:01:17.601Z,63.88
2023-04-19T13:02:49.984Z,64.61
2023-04-19T13:04:22.556Z,66.37
2023-04-19T13:05:55.196Z,66.42
2023-04-19T13:07:28.946Z,66.86
2023-04-19T13:09:01.763Z,65.79
2023-04-19T13:10:33.991Z,64.63
2023-04-19T13:13:38.040Z,64.69
2023-04-19T13:15:10.621Z,64.59
2023-04-19T13:16:42.852Z,64.91
2023-04-19T13:18:15.429Z,64.86
2023-04-19T13:19:47.932Z,65.56
2023-04-19T13:21:20.107Z,65.43
2023-04-19T13:22:52.229Z,65.42
2023-04-19T13:24:24.570Z,64.17
2023-04-19T13:25:56.684Z,63.46
2023-04-19T13:27:28.799Z,63.29
2023-04-19T13:29:01.113Z,63.96
2023-04-19T13:30:33.419Z,64.52
2023-04-19T13:32:12.720Z,64.56
2023-04-19T13:33:47.331Z,64.66
2023-04-19T13:35:19.406Z,65.95
2023-04-19T13:36:51.597Z,66.60
2023-04-19T13:38:24.478Z,66.84
2023-04-19T13:40:07.018Z,67.45
2023-04-19T13:41:39.470Z,67.52
2023-04-19T13:43:11.630Z,68.37
2023-04-19T13:44:43.640Z,68.55
2023-04-19T13:46:15.965Z,69.97
2023-04-19T13:47:48.092Z,70.21
2023-04-19T13:49:20.194Z,70.72
2023-04-19T13:50:53.007Z,71.46
2023-04-19T13:52:25.125Z,71.70
2023-04-19T13:53:57.215Z,72.06
2023-04-19T13:55:29.386Z,72.61
2023-04-19T13:57:02.098Z,73.26
2023-04-19T13:58:34.258Z,73.81
2023-04-19T14:00:07.159Z,74.73
2023-04-19T14:01:39.423Z,74.83
2023-04-19T14:03:12.167Z,75.29
2023-04-19T14:04:44.438Z,75.43
2023-04-19T14:06:17.475Z,76.15
2023-04-19T14:07:49.716Z,76.69
2023-04-19T14:09:22.049Z,76.55
2023-04-19T14:12:38.962Z,78.13
2023-04-19T14:14:11.186Z,78.70
2023-04-19T14:15:47.459Z,79.11
2023-04-19T14:17:19.688Z,79.40
2023-04-19T14:18:52.445Z,79.38
2023-04-19T14:20:24.550Z,79.71
2023-04-19T14:21:56.998Z,79.33
2023-04-19T14:23:29.196Z,78.96
2023-04-19T14:25:01.287Z,78.46
2023-04-19T14:26:34.168Z,78.43
2023-04-19T14:28:06.299Z,77.49
2023-04-19T14:29:38.473Z,77.32
2023-04-19T14:31:10.829Z,76.83
2023-04-19T14:32:43.122Z,76.69
2023-04-19T14:34:15.428Z,75.72
2023-04-19T14:35:47.756Z,75.60
2023-04-19T14:37:21.569Z,75.72
2023-04-19T14:38:53.753Z,75.60
2023-04-19T14:40:26.007Z,75.80
2023-04-19T14:41:58.276Z,75.54
2023-04-19T14:43:31.164Z,75.68
2023-04-19T14:45:03.425Z,75.80
2023-04-19T14:46:35.563Z,75.76
2023-04-19T14:48:07.744Z,75.93
2023-04-19T14:49:42.070Z,75.98
2023-04-19T14:51:14.188Z,76.21
2023-04-19T14:52:46.290Z,76.58
2023-04-19T14:54:18.398Z,76.63
2023-04-19T14:55:50.520Z,76.17
2023-04-19T14:57:22.755Z,75.84
2023-04-19T14:58:55.008Z,74.08
2023-04-19T15:00:28.114Z,72.79
2023-04-19T15:02:00.261Z,72.28
2023-04-19T15:03:32.650Z,72.40
2023-04-19T15:05:05.494Z,72.41
2023-04-19T15:06:38.011Z,72.08
2023-04-19T15:08:23.418Z,72.41
2023-04-19T15:10:01.690Z,72.85
2023-04-19T15:11:33.825Z,72.55
2023-04-19T15:13:06.211Z,70.06
2023-04-19T15:14:39.213Z,69.95
2023-04-19T15:16:11.479Z,70.41
2023-04-19T15:17:43.872Z,69.54
2023-04-19T15:19:16.358Z,69.57
2023-04-19T15:20:49.007Z,70.14
2023-04-19T15:22:21.110Z,69.99
2023-04-19T15:23:56.173Z,69.92
2023-04-19T15:25:28.396Z,68.33
2023-04-19T15:27:00.567Z,67.93
2023-04-19T15:28:35.708Z,68.17
2023-04-19T15:30:08.445Z,68.91
2023-04-19T15:31:40.875Z,68.08
2023-04-19T15:33:13.092Z,67.88
2023-04-19T15:34:45.291Z,68.18
2023-04-19T15:36:17.511Z,68.99
2023-04-19T15:37:49.731Z,68.97
2023-04-19T15:39:21.834Z,68.54
2023-04-19T15:40:58.083Z,69.17
2023-04-19T15:42:30.185Z,69.41
2023-04-19T15:44:02.386Z,68.45
2023-04-19T15:45:34.499Z,68.24
2023-04-19T15:47:06.544Z,68.44
2023-04-19T15:48:38.611Z,68.82
2023-04-19T15:51:47.548Z,68.99
2023-04-19T15:53:19.679Z,67.03
2023-04-19T15:54:52.350Z,67.02
2023-04-19T15:56:24.498Z,67.56
2023-04-19T15:57:56.928Z,67.93
2023-04-19T15:59:29.388Z,68.25
2023-04-19T16:01:01.659Z,68.97
2023-04-19T16:02:34.445Z,69.29
2023-04-19T16:04:06.947Z,69.97
2023-04-19T16:05:39.509Z,69.43
2023-04-19T16:07:11.539Z,69.65
2023-04-19T16:08:43.946Z,69.12
2023-04-19T16:10:16.160Z,69.82
2023-04-19T16:11:48.286Z,69.65
2023-04-19T16:13:20.520Z,70.03
2023-04-19T16:14:52.869Z,70.20
2023-04-19T16:16:27.115Z,70.44
2023-04-19T16:17:59.345Z,70.91
2023-04-19T16:19:31.489Z,70.60
2023-04-19T16:21:04.336Z,70.73
2023-04-19T16:22:37.030Z,71.09
2023-04-19T16:24:09.171Z,70.67
2023-04-19T16:25:44.183Z,70.81
2023-04-19T16:27:16.316Z,71.02
2023-04-19T16:28:48.939Z,71.45
2023-04-19T16:30:22.635Z,71.75
2023-04-19T16:31:54.852Z,71.95
2023-04-19T16:33:27.122Z,71.91
2023-04-19T16:34:59.344Z,72.03
2023-04-19T16:36:32.384Z,72.48
2023-04-19T16:38:07.446Z,72.80
2023-04-19T16:39:39.606Z,73.14
2023-04-19T16:41:12.261Z,73.40
2023-04-19T16:42:44.423Z,73.28
2023-04-19T16:44:16.714Z,73.39
2023-04-19T16:45:49.127Z,73.54
2023-04-19T16:47:22.264Z,73.64
2023-04-19T16:48:54.473Z,74.00
2023-04-19T16:50:26.602Z,74.31
2023-04-19T16:51:58.859Z,74.49
2023-04-19T16:53:31.835Z,74.53
2023-04-19T16:55:04.813Z,74.54
2023-04-19T16:56:36.999Z,74.72
2023-04-19T16:58:09.178Z,75.08
2023-04-19T16:59:41.433Z,75.29
2023-04-19T17:01:16.853Z,75.76
2023-04-19T17:02:49.212Z,76.20
2023-04-19T17:04:21.705Z,76.29
2023-04-19T17:05:54.016Z,76.36
2023-04-19T17:07:26.239Z,76.61
2023-04-19T17:09:02.441Z,76.33
2023-04-19T17:10:34.565Z,76.40
2023-04-19T17:12:07.493Z,76.61
2023-04-19T17:13:40.299Z,76.81
2023-04-19T17:15:12.496Z,77.07
2023-04-19T17:16:44.621Z,77.01
2023-04-19T17:18:16.764Z,77.45
2023-04-19T17:19:48.897Z,77.68
2023-04-19T17:21:20.989Z,77.74
2023-04-19T17:22:53.112Z,77.99
2023-04-19T17:24:25.247Z,78.06
2023-04-19T17:25:57.423Z,78.48
2023-04-19T17:27:29.567Z,78.59
2023-04-19T17:29:02.549Z,78.94
2023-04-19T17:30:34.805Z,79.00
2023-04-19T17:32:08.088Z,79.01
2023-04-19T17:33:40.223Z,78.96
2023-04-19T17:35:14.978Z,78.91
2023-04-19T17:36:47.113Z,79.28
2023-04-19T17:38:19.248Z,79.24
2023-04-19T17:39:51.563Z,79.62
2023-04-19T17:41:23.647Z,79.94
2023-04-19T17:42:55.996Z,80.05
2023-04-19T17:44:28.157Z,80.28
2023-04-19T17:46:00.339Z,80.45
2023-04-19T17:47:32.654Z,80.67
2023-04-19T17:49:04.847Z,80.81
2023-04-19T17:50:37.021Z,80.99
2023-04-19T17:52:09.150Z,81.29
2023-04-19T17:53:41.400Z,81.36
2023-04-19T17:55:14.850Z,81.58
2023-04-19T17:56:46.811Z,81.49
2023-04-19T17:58:20.457Z,81.60
2023-04-19T17:59:52.727Z,81.50
2023-04-19T18:01:24.960Z,81.36
2023-04-19T18:02:57.267Z,81.72
2023-04-19T18:04:29.751Z,81.47
2023-04-19T18:06:02.046Z,81.58
2023-04-19T18:07:36.827Z,81.94
2023-04-19T18:09:09.029Z,82.32
2023-04-19T18:10:41.094Z,82.13
2023-04-19T18:12:13.271Z,82.06
2023-04-19T18:13:45.622Z,81.65
2023-04-19T18:15:17.916Z,82.23
2023-04-19T18:16:50.190Z,81.94
2023-04-19T18:18:22.350Z,81.72
2023-04-19T18:19:54.679Z,81.81
2023-04-19T18:21:27.568Z,81.74
2023-04-19T18:23:02.132Z,81.61
2023-04-19T18:24:34.259Z,81.81
2023-04-19T18:26:06.638Z,81.74
2023-04-19T18:27:38.751Z,82.37
2023-04-19T18:29:12.736Z,82.32
2023-04-19T18:30:44.895Z,83.05
2023-04-19T18:32:17.162Z,82.95
2023-04-19T18:33:49.337Z,82.89
2023-04-19T18:35:22.363Z,83.42
2023-04-19T18:37:02.505Z,83.48
2023-04-19T18:38:34.606Z,83.94
2023-04-19T18:40:07.738Z,84.20
2023-04-19T18:41:40.040Z,84.66
2023-04-19T18:43:12.257Z,85.17
2023-04-19T18:44:53.749Z,85.28
2023-04-19T18:46:26.919Z,85.54
2023-04-19T18:48:01.514Z,85.84
2023-04-19T18:49:33.858Z,85.97
2023-04-19T18:51:09.776Z,86.23
2023-04-19T18:52:42.097Z,86.41
2023-04-19T18:54:14.296Z,86.80
2023-04-19T18:55:47.995Z,87.02
2023-04-19T18:57:23.578Z,86.94
2023-04-19T18:59:00.299Z,87.07
2023-04-19T19:00:32.474Z,86.92
2023-04-19T19:02:04.659Z,86.84
2023-04-19T19:05:13.750Z,87.02
2023-04-19T19:06:46.366Z,86.95
2023-04-19T19:08:18.718Z,86.94
2023-04-19T19:09:55.732Z,87.14
2023-04-19T19:11:51.957Z,87.34
2023-04-19T19:13:20.856Z,87.67
2023-04-19T19:14:53.388Z,87.71
2023-04-19T19:16:25.758Z,87.97
2023-04-19T19:17:58.207Z,87.84
2023-04-19T19:19:30.428Z,88.05
2023-04-19T19:21:02.610Z,88.14
2023-04-19T19:22:35.039Z,87.86
2023-04-19T19:24:07.258Z,87.91
2023-04-19T19:25:39.452Z,87.87
2023-04-19T19:27:11.742Z,87.87
2023-04-19T19:28:43.848Z,88.09
2023-04-19T19:30:16.217Z,88.00
2023-04-19T19:31:48.369Z,87.69
2023-04-19T19:33:21.729Z,87.62
2023-04-19T19:35:00.555Z,87.33
2023-04-19T19:36:33.789Z,87.29
2023-04-19T19:38:05.950Z,87.02
2023-04-19T19:39:38.060Z,86.79
2023-04-19T19:42:48.965Z,86.43
2023-04-19T19:44:21.092Z,86.53
2023-04-19T19:45:53.280Z,86.96
2023-04-19T19:47:27.963Z,86.77
2023-04-19T19:49:00.429Z,87.10
2023-04-19T19:52:07.729Z,87.90
2023-04-19T19:53:39.951Z,88.08
2023-04-19T19:55:14.047Z,88.29
2023-04-19T19:57:18.948Z,88.59
2023-04-19T19:58:49.728Z,88.78
2023-04-19T20:00:43.930Z,89.06
2023-04-19T20:02:16.354Z,89.00
2023-04-19T20:03:51.089Z,89.34
2023-04-19T20:05:23.946Z,89.50
2023-04-19T20:07:25.874Z,89.48
2023-04-19T20:08:50.044Z,89.60
2023-04-19T20:10:22.299Z,89.57
2023-04-19T20:11:54.431Z,89.71
2023-04-19T20:13:27.292Z,89.81
2023-04-19T20:14:59.448Z,89.70
2023-04-19T20:16:31.616Z,89.89
2023-04-19T20:18:04.730Z,89.74
2023-04-19T20:19:37.856Z,89.98
2023-04-19T20:21:10.095Z,90.02
2023-04-19T20:22:42.287Z,89.94
2023-04-19T20:24:14.496Z,90.18
2023-04-19T20:25:46.964Z,90.04
2023-04-19T20:27:19.708Z,90.21
2023-04-19T20:28:52.993Z,89.67
2023-04-19T20:30:25.286Z,89.48
2023-04-19T20:31:57.758Z,89.58
2023-04-19T20:33:29.858Z,89.54
2023-04-19T20:35:08.634Z,89.08
2023-04-19T20:36:40.780Z,89.29
2023-04-19T20:38:13.202Z,89.39
2023-04-19T20:39:45.508Z,89.56
2023-04-19T20:41:18.585Z,89.90
2023-04-19T20:42:50.753Z,89.87
2023-04-19T20:44:23.286Z,89.86
2023-04-19T20:45:55.534Z,90.17
2023-04-19T20:47:27.791Z,90.10
2023-04-19T20:48:59.971Z,89.99
2023-04-19T20:50:32.192Z,90.01
2023-04-19T20:52:04.405Z,90.35
2023-04-19T20:53:36.516Z,90.26
2023-04-19T20:55:09.201Z,90.07
2023-04-19T20:56:41.555Z,90.20
2023-04-19T20:58:13.700Z,90.45
2023-04-19T20:59:47.490Z,90.36